Aeroporto :
LOGIN :

Iscrizione | Disclaimer

   EN    FR    IT 

 










Sommario :    VFR   VFR Marginale   IFR   IFR Intensivo   IFR Molto Intensivo
Visibilità : 
Base nubi : 
>= 8 km
>= 3000ft
5 / 8 km
1000 / 3000 ft
1500m / 5 km
500 / 1000 ft
800 / 1500m
200 / 500 ft
< 800m
< 200 ft
Simboli :   Temporali  Nebbia  Neve Forte  Precipitazioni Forti  Vento > 20 kt
SIGMETs :   Varie  Temporali  Ghiacco  Turbolenza  Onda orograficha  Ceneri Vulcaniche






- Altitudine del aeroporto : 287 ft


LFRL - Lanveoc Poulmic

ULTIMO METAR :
  • 221300Z AUTO 11011KT 9999 -RA OVC013/// ///TCU 10/08 Q0984 TEMPO 3000 RA BKN004 BKN009CB BECMG 12015G25KT

METARs OBSOLETI :
  • 221230Z AUTO 12011KT 9999 OVC012/// ///TCU 10/08 Q0985 TEMPO 3000 RA BKN004 BKN009CB BECMG 12015G25KT
  • 221200Z AUTO 12010KT 9999 OVC013 11/08 Q0986 BECMG 12015G25KT RA
  • 221130Z AUTO 13012KT 9999 BKN015 BKN180 11/08 Q0986 BECMG 12015G25KT RA
  • 221100Z AUTO 11010KT 9999 FEW015 SCT056 BKN180 10/08 Q0987 TEMPO 2000 SHRA BKN014CB BECMG 12015G25KT
  • 221030Z AUTO 13011KT CAVOK 11/08 Q0987 TEMPO 2000 SHRA BKN014CB BECMG 12015G25KT

TAF TAF LFRL
Valido dal 22 a 12 ore il 23 a 12 ore UTC


221100Z 2212/2312 12015G25KT 9999 RA BKN014 OVC040
TEMPO 2214/2221 3000 RA BKN004 BKN009CB
BECMG 2221/2224 14005KT NSW BKN004
TEMPO 2300/2306 2000 SHRA BR BKN004 BKN009TCU
BECMG 2306/2308 31010KT BKN020TCU



MetMap, La meteo Aeronautica in un colpo d'occhio ! - Copyright ORBIFLY Dicembre 2007 - Disclaimer

ORBIFLY MET'MAP TEAM :

Programmazione e sviluppo : Alexandra Zaïnal
Concezione e sviluppo : Baudouin d'Aumeries
Co-Programmazione e sviluppo : Marc-Olivier Méhu
Supporto tecnico e logistico : Manuel Goepfert
Aiuto per la traduzione : Arnaldo La Scala

Contatto : metmap@orbifly.com




FONTI E CREDITI :

   NOAA